sensor_id;sensor_type;location;lat;lon;timestamp;P1;durP1;ratioP1;P2;durP2;ratioP2
76863;SDS011;65834;52.364;9.754;2023-07-02T00:02:21;9.40;;;3.53;;
76863;SDS011;65834;52.364;9.754;2023-07-02T00:04:51;10.50;;;3.50;;
76863;SDS011;65834;52.364;9.754;2023-07-02T00:07:21;9.07;;;3.75;;
76863;SDS011;65834;52.364;9.754;2023-07-02T00:09:52;8.90;;;3.00;;
76863;SDS011;65834;52.364;9.754;2023-07-02T00:12:22;7.43;;;2.88;;
76863;SDS011;65834;52.364;9.754;2023-07-02T00:14:54;8.35;;;3.20;;
76863;SDS011;65834;52.364;9.754;2023-07-02T00:17:32;7.88;;;3.17;;
76863;SDS011;65834;52.364;9.754;2023-07-02T00:20:07;9.18;;;3.20;;
76863;SDS011;65834;52.364;9.754;2023-07-02T00:22:42;9.07;;;3.33;;
76863;SDS011;65834;52.364;9.754;2023-07-02T00:25:13;7.05;;;3.03;;
76863;SDS011;65834;52.364;9.754;2023-07-02T00:27:46;6.63;;;3.35;;
76863;SDS011;65834;52.364;9.754;2023-07-02T00:30:18;8.75;;;3.30;;
76863;SDS011;65834;52.364;9.754;2023-07-02T00:32:48;6.15;;;2.70;;
76863;SDS011;65834;52.364;9.754;2023-07-02T00:35:18;7.55;;;2.70;;
76863;SDS011;65834;52.364;9.754;2023-07-02T00:37:48;6.60;;;2.80;;
76863;SDS011;65834;52.364;9.754;2023-07-02T00:40:18;7.95;;;2.83;;
76863;SDS011;65834;52.364;9.754;2023-07-02T00:42:47;7.70;;;2.55;;
76863;SDS011;65834;52.364;9.754;2023-07-02T00:45:20;7.80;;;2.67;;
76863;SDS011;65834;52.364;9.754;2023-07-02T00:47:53;7.30;;;3.35;;
76863;SDS011;65834;52.364;9.754;2023-07-02T00:50:27;8.68;;;3.00;;
76863;SDS011;65834;52.364;9.754;2023-07-02T00:52:57;7.78;;;2.90;;
76863;SDS011;65834;52.364;9.754;2023-07-02T00:55:26;6.57;;;2.53;;
76863;SDS011;65834;52.364;9.754;2023-07-02T00:57:56;7.43;;;3.38;;
76863;SDS011;65834;52.364;9.754;2023-07-02T01:00:28;6.43;;;3.08;;
76863;SDS011;65834;52.364;9.754;2023-07-02T01:02:58;9.43;;;3.17;;
76863;SDS011;65834;52.364;9.754;2023-07-02T01:05:29;7.55;;;2.97;;
76863;SDS011;65834;52.364;9.754;2023-07-02T01:10:31;7.20;;;3.10;;
76863;SDS011;65834;52.364;9.754;2023-07-02T01:13:03;10.25;;;3.25;;
76863;SDS011;65834;52.364;9.754;2023-07-02T01:15:39;12.60;;;4.05;;
76863;SDS011;65834;52.364;9.754;2023-07-02T01:18:09;7.50;;;3.08;;
76863;SDS011;65834;52.364;9.754;2023-07-02T01:20:43;8.63;;;3.30;;
76863;SDS011;65834;52.364;9.754;2023-07-02T01:23:14;8.95;;;3.65;;
76863;SDS011;65834;52.364;9.754;2023-07-02T01:25:44;11.27;;;3.35;;
76863;SDS011;65834;52.364;9.754;2023-07-02T01:28:14;11.85;;;3.40;;
76863;SDS011;65834;52.364;9.754;2023-07-02T01:30:44;8.85;;;3.35;;
76863;SDS011;65834;52.364;9.754;2023-07-02T01:33:14;8.60;;;3.78;;
76863;SDS011;65834;52.364;9.754;2023-07-02T01:35:46;7.82;;;3.90;;
76863;SDS011;65834;52.364;9.754;2023-07-02T01:38:16;8.48;;;4.03;;
76863;SDS011;65834;52.364;9.754;2023-07-02T01:40:45;12.38;;;4.15;;
76863;SDS011;65834;52.364;9.754;2023-07-02T01:43:15;7.22;;;3.30;;
76863;SDS011;65834;52.364;9.754;2023-07-02T01:45:45;9.60;;;4.00;;
76863;SDS011;65834;52.364;9.754;2023-07-02T01:48:15;10.60;;;4.43;;
76863;SDS011;65834;52.364;9.754;2023-07-02T01:50:48;11.15;;;4.38;;
76863;SDS011;65834;52.364;9.754;2023-07-02T01:53:18;9.38;;;4.03;;
76863;SDS011;65834;52.364;9.754;2023-07-02T01:55:47;10.98;;;4.07;;
76863;SDS011;65834;52.364;9.754;2023-07-02T01:58:17;10.50;;;4.63;;
76863;SDS011;65834;52.364;9.754;2023-07-02T02:00:47;11.75;;;4.28;;
76863;SDS011;65834;52.364;9.754;2023-07-02T02:03:17;12.45;;;4.50;;
76863;SDS011;65834;52.364;9.754;2023-07-02T02:05:49;10.23;;;4.38;;
76863;SDS011;65834;52.364;9.754;2023-07-02T02:08:18;10.30;;;4.30;;
76863;SDS011;65834;52.364;9.754;2023-07-02T02:10:48;9.75;;;3.95;;
76863;SDS011;65834;52.364;9.754;2023-07-02T02:13:18;10.45;;;4.63;;
76863;SDS011;65834;52.364;9.754;2023-07-02T02:15:48;10.02;;;3.70;;
76863;SDS011;65834;52.364;9.754;2023-07-02T02:18:18;13.95;;;4.20;;
76863;SDS011;65834;52.364;9.754;2023-07-02T02:20:50;9.48;;;3.78;;
76863;SDS011;65834;52.364;9.754;2023-07-02T02:23:19;11.43;;;4.53;;
76863;SDS011;65834;52.364;9.754;2023-07-02T02:25:49;9.63;;;4.63;;
76863;SDS011;65834;52.364;9.754;2023-07-02T02:28:18;12.25;;;4.57;;
76863;SDS011;65834;52.364;9.754;2023-07-02T02:30:48;12.05;;;4.95;;
76863;SDS011;65834;52.364;9.754;2023-07-02T02:33:18;12.27;;;4.53;;
76863;SDS011;65834;52.364;9.754;2023-07-02T02:35:52;11.25;;;4.75;;
76863;SDS011;65834;52.364;9.754;2023-07-02T02:40:51;16.88;;;5.25;;
76863;SDS011;65834;52.364;9.754;2023-07-02T02:43:21;11.93;;;4.88;;
76863;SDS011;65834;52.364;9.754;2023-07-02T02:45:50;10.25;;;4.63;;
76863;SDS011;65834;52.364;9.754;2023-07-02T02:52:08;14.65;;;5.30;;
76863;SDS011;65834;52.364;9.754;2023-07-02T02:54:37;13.93;;;5.05;;
76863;SDS011;65834;52.364;9.754;2023-07-02T02:57:07;13.18;;;5.70;;
76863;SDS011;65834;52.364;9.754;2023-07-02T02:59:36;13.63;;;5.20;;
76863;SDS011;65834;52.364;9.754;2023-07-02T03:02:06;13.27;;;5.75;;
76863;SDS011;65834;52.364;9.754;2023-07-02T03:04:35;14.05;;;5.63;;
76863;SDS011;65834;52.364;9.754;2023-07-02T03:07:10;13.68;;;5.70;;
76863;SDS011;65834;52.364;9.754;2023-07-02T03:09:40;18.52;;;5.43;;
76863;SDS011;65834;52.364;9.754;2023-07-02T03:12:09;15.07;;;5.93;;
76863;SDS011;65834;52.364;9.754;2023-07-02T03:14:39;15.45;;;6.45;;
76863;SDS011;65834;52.364;9.754;2023-07-02T03:17:09;12.48;;;5.63;;
76863;SDS011;65834;52.364;9.754;2023-07-02T03:19:38;11.90;;;5.40;;
76863;SDS011;65834;52.364;9.754;2023-07-02T03:22:10;14.07;;;5.90;;
76863;SDS011;65834;52.364;9.754;2023-07-02T03:24:40;14.88;;;6.75;;
76863;SDS011;65834;52.364;9.754;2023-07-02T03:27:10;12.48;;;6.00;;
76863;SDS011;65834;52.364;9.754;2023-07-02T03:29:39;13.52;;;6.35;;
76863;SDS011;65834;52.364;9.754;2023-07-02T03:32:09;11.48;;;5.40;;
76863;SDS011;65834;52.364;9.754;2023-07-02T03:34:39;12.15;;;5.60;;
76863;SDS011;65834;52.364;9.754;2023-07-02T03:37:11;13.07;;;5.45;;
76863;SDS011;65834;52.364;9.754;2023-07-02T03:39:40;12.93;;;6.40;;
76863;SDS011;65834;52.364;9.754;2023-07-02T03:42:10;11.65;;;5.95;;
76863;SDS011;65834;52.364;9.754;2023-07-02T03:44:40;13.30;;;6.25;;
76863;SDS011;65834;52.364;9.754;2023-07-02T03:47:09;12.68;;;5.72;;
76863;SDS011;65834;52.364;9.754;2023-07-02T03:49:39;14.40;;;6.18;;
76863;SDS011;65834;52.364;9.754;2023-07-02T03:52:11;14.35;;;5.88;;
76863;SDS011;65834;52.364;9.754;2023-07-02T03:54:41;12.95;;;6.13;;
76863;SDS011;65834;52.364;9.754;2023-07-02T03:57:10;14.10;;;5.72;;
76863;SDS011;65834;52.364;9.754;2023-07-02T03:59:40;11.93;;;5.80;;
76863;SDS011;65834;52.364;9.754;2023-07-02T04:02:09;16.02;;;7.40;;
76863;SDS011;65834;52.364;9.754;2023-07-02T04:04:39;13.32;;;5.72;;
76863;SDS011;65834;52.364;9.754;2023-07-02T04:07:11;13.73;;;6.47;;
76863;SDS011;65834;52.364;9.754;2023-07-02T04:09:42;13.02;;;6.22;;
76863;SDS011;65834;52.364;9.754;2023-07-02T04:12:11;14.98;;;6.25;;
76863;SDS011;65834;52.364;9.754;2023-07-02T04:14:41;14.20;;;6.20;;
76863;SDS011;65834;52.364;9.754;2023-07-02T04:17:11;12.98;;;6.50;;
76863;SDS011;65834;52.364;9.754;2023-07-02T04:19:41;13.90;;;6.20;;
76863;SDS011;65834;52.364;9.754;2023-07-02T04:22:13;12.98;;;5.72;;
76863;SDS011;65834;52.364;9.754;2023-07-02T04:24:42;14.00;;;6.32;;
76863;SDS011;65834;52.364;9.754;2023-07-02T04:27:16;13.65;;;6.25;;
76863;SDS011;65834;52.364;9.754;2023-07-02T04:30:07;12.93;;;5.15;;
76863;SDS011;65834;52.364;9.754;2023-07-02T04:32:37;13.00;;;5.93;;
76863;SDS011;65834;52.364;9.754;2023-07-02T04:35:08;15.38;;;6.72;;
76863;SDS011;65834;52.364;9.754;2023-07-02T04:37:40;13.55;;;5.95;;
76863;SDS011;65834;52.364;9.754;2023-07-02T04:40:10;16.30;;;5.43;;
76863;SDS011;65834;52.364;9.754;2023-07-02T04:42:41;15.43;;;6.07;;
76863;SDS011;65834;52.364;9.754;2023-07-02T04:45:13;12.60;;;5.03;;
76863;SDS011;65834;52.364;9.754;2023-07-02T04:47:44;15.18;;;5.43;;
76863;SDS011;65834;52.364;9.754;2023-07-02T04:50:15;15.93;;;5.60;;
76863;SDS011;65834;52.364;9.754;2023-07-02T04:52:48;15.98;;;5.80;;
76863;SDS011;65834;52.364;9.754;2023-07-02T04:55:18;15.85;;;5.93;;
76863;SDS011;65834;52.364;9.754;2023-07-02T04:57:48;16.42;;;5.90;;
76863;SDS011;65834;52.364;9.754;2023-07-02T05:00:17;14.40;;;5.40;;
76863;SDS011;65834;52.364;9.754;2023-07-02T05:02:48;14.38;;;5.65;;
76863;SDS011;65834;52.364;9.754;2023-07-02T05:05:18;15.07;;;5.00;;
76863;SDS011;65834;52.364;9.754;2023-07-02T05:07:50;16.02;;;5.80;;
76863;SDS011;65834;52.364;9.754;2023-07-02T05:10:20;16.95;;;6.25;;
76863;SDS011;65834;52.364;9.754;2023-07-02T05:12:49;16.95;;;6.40;;
76863;SDS011;65834;52.364;9.754;2023-07-02T05:15:19;15.02;;;5.53;;
76863;SDS011;65834;52.364;9.754;2023-07-02T05:17:49;15.35;;;5.30;;
76863;SDS011;65834;52.364;9.754;2023-07-02T05:20:19;15.70;;;6.25;;
76863;SDS011;65834;52.364;9.754;2023-07-02T05:22:51;16.08;;;6.05;;
76863;SDS011;65834;52.364;9.754;2023-07-02T05:25:20;15.10;;;4.85;;
76863;SDS011;65834;52.364;9.754;2023-07-02T05:27:50;18.10;;;5.53;;
76863;SDS011;65834;52.364;9.754;2023-07-02T05:30:20;12.57;;;5.28;;
76863;SDS011;65834;52.364;9.754;2023-07-02T05:32:49;16.25;;;5.43;;
76863;SDS011;65834;52.364;9.754;2023-07-02T05:35:19;12.18;;;4.60;;
76863;SDS011;65834;52.364;9.754;2023-07-02T05:37:51;12.98;;;5.00;;
76863;SDS011;65834;52.364;9.754;2023-07-02T05:40:21;13.40;;;5.70;;
76863;SDS011;65834;52.364;9.754;2023-07-02T05:42:50;14.05;;;5.55;;
76863;SDS011;65834;52.364;9.754;2023-07-02T05:45:20;13.02;;;4.95;;
76863;SDS011;65834;52.364;9.754;2023-07-02T05:47:49;14.25;;;5.63;;
76863;SDS011;65834;52.364;9.754;2023-07-02T05:50:19;14.05;;;4.70;;
76863;SDS011;65834;52.364;9.754;2023-07-02T05:52:51;15.90;;;5.63;;
76863;SDS011;65834;52.364;9.754;2023-07-02T05:55:21;16.35;;;5.85;;
76863;SDS011;65834;52.364;9.754;2023-07-02T05:57:50;14.70;;;5.57;;
76863;SDS011;65834;52.364;9.754;2023-07-02T06:00:21;16.30;;;5.13;;
76863;SDS011;65834;52.364;9.754;2023-07-02T06:02:50;17.15;;;6.22;;
76863;SDS011;65834;52.364;9.754;2023-07-02T06:05:20;18.30;;;6.45;;
76863;SDS011;65834;52.364;9.754;2023-07-02T06:07:52;14.70;;;5.18;;
76863;SDS011;65834;52.364;9.754;2023-07-02T06:10:22;14.23;;;5.63;;
76863;SDS011;65834;52.364;9.754;2023-07-02T06:12:51;16.70;;;5.22;;
76863;SDS011;65834;52.364;9.754;2023-07-02T06:15:21;18.40;;;5.47;;
76863;SDS011;65834;52.364;9.754;2023-07-02T06:17:51;17.88;;;5.50;;
76863;SDS011;65834;52.364;9.754;2023-07-02T06:20:20;15.20;;;5.05;;
76863;SDS011;65834;52.364;9.754;2023-07-02T06:22:52;14.55;;;5.15;;
76863;SDS011;65834;52.364;9.754;2023-07-02T06:25:22;16.00;;;4.82;;
76863;SDS011;65834;52.364;9.754;2023-07-02T06:27:52;15.43;;;5.75;;
76863;SDS011;65834;52.364;9.754;2023-07-02T06:30:24;15.32;;;5.57;;
76863;SDS011;65834;52.364;9.754;2023-07-02T06:32:54;14.60;;;5.18;;
76863;SDS011;65834;52.364;9.754;2023-07-02T06:35:24;16.63;;;5.40;;
76863;SDS011;65834;52.364;9.754;2023-07-02T06:37:56;18.00;;;5.88;;
76863;SDS011;65834;52.364;9.754;2023-07-02T06:40:25;15.02;;;5.10;;
76863;SDS011;65834;52.364;9.754;2023-07-02T06:42:55;16.60;;;4.85;;
76863;SDS011;65834;52.364;9.754;2023-07-02T06:45:25;17.55;;;5.78;;
76863;SDS011;65834;52.364;9.754;2023-07-02T06:47:54;19.95;;;5.93;;
76863;SDS011;65834;52.364;9.754;2023-07-02T06:50:24;17.77;;;5.38;;
76863;SDS011;65834;52.364;9.754;2023-07-02T06:52:56;16.60;;;5.45;;
76863;SDS011;65834;52.364;9.754;2023-07-02T06:55:30;20.35;;;6.45;;
76863;SDS011;65834;52.364;9.754;2023-07-02T06:58:00;15.82;;;5.40;;
76863;SDS011;65834;52.364;9.754;2023-07-02T07:00:30;17.80;;;6.70;;
76863;SDS011;65834;52.364;9.754;2023-07-02T07:03:01;14.73;;;5.60;;
76863;SDS011;65834;52.364;9.754;2023-07-02T07:05:31;16.73;;;6.40;;
76863;SDS011;65834;52.364;9.754;2023-07-02T07:08:04;16.38;;;5.72;;
76863;SDS011;65834;52.364;9.754;2023-07-02T07:10:33;17.58;;;6.28;;
76863;SDS011;65834;52.364;9.754;2023-07-02T07:13:03;18.02;;;5.88;;
76863;SDS011;65834;52.364;9.754;2023-07-02T07:15:36;16.30;;;5.72;;
76863;SDS011;65834;52.364;9.754;2023-07-02T07:18:08;19.02;;;5.80;;
76863;SDS011;65834;52.364;9.754;2023-07-02T07:23:11;16.23;;;5.45;;
76863;SDS011;65834;52.364;9.754;2023-07-02T07:25:40;22.20;;;7.25;;
76863;SDS011;65834;52.364;9.754;2023-07-02T07:28:10;16.55;;;5.80;;
76863;SDS011;65834;52.364;9.754;2023-07-02T07:30:42;18.35;;;5.95;;
76863;SDS011;65834;52.364;9.754;2023-07-02T07:33:12;16.50;;;6.35;;
76863;SDS011;65834;52.364;9.754;2023-07-02T07:35:41;16.85;;;6.05;;
76863;SDS011;65834;52.364;9.754;2023-07-02T07:38:15;16.10;;;5.38;;
76863;SDS011;65834;52.364;9.754;2023-07-02T07:40:44;18.02;;;6.57;;
76863;SDS011;65834;52.364;9.754;2023-07-02T07:43:15;16.77;;;6.10;;
76863;SDS011;65834;52.364;9.754;2023-07-02T07:45:44;16.60;;;5.53;;
76863;SDS011;65834;52.364;9.754;2023-07-02T07:48:14;21.77;;;6.63;;
76863;SDS011;65834;52.364;9.754;2023-07-02T07:50:44;18.45;;;6.95;;
76863;SDS011;65834;52.364;9.754;2023-07-02T07:53:17;18.60;;;6.55;;
76863;SDS011;65834;52.364;9.754;2023-07-02T07:55:46;18.00;;;5.90;;
76863;SDS011;65834;52.364;9.754;2023-07-02T07:58:16;18.77;;;7.03;;
76863;SDS011;65834;52.364;9.754;2023-07-02T08:00:46;18.27;;;6.30;;
76863;SDS011;65834;52.364;9.754;2023-07-02T08:03:16;20.63;;;6.43;;
76863;SDS011;65834;52.364;9.754;2023-07-02T08:05:45;19.73;;;6.57;;
76863;SDS011;65834;52.364;9.754;2023-07-02T08:08:18;19.58;;;5.95;;
76863;SDS011;65834;52.364;9.754;2023-07-02T08:10:47;15.30;;;5.97;;
76863;SDS011;65834;52.364;9.754;2023-07-02T08:13:17;21.05;;;7.20;;
76863;SDS011;65834;52.364;9.754;2023-07-02T08:15:47;17.23;;;6.80;;
76863;SDS011;65834;52.364;9.754;2023-07-02T08:18:17;17.98;;;6.22;;
76863;SDS011;65834;52.364;9.754;2023-07-02T08:20:46;19.13;;;6.63;;
76863;SDS011;65834;52.364;9.754;2023-07-02T08:23:19;18.02;;;6.35;;
76863;SDS011;65834;52.364;9.754;2023-07-02T08:25:48;16.02;;;6.05;;
76863;SDS011;65834;52.364;9.754;2023-07-02T08:28:18;19.27;;;6.97;;
76863;SDS011;65834;52.364;9.754;2023-07-02T08:30:48;20.58;;;6.30;;
76863;SDS011;65834;52.364;9.754;2023-07-02T08:33:17;19.27;;;7.03;;
76863;SDS011;65834;52.364;9.754;2023-07-02T08:35:47;21.20;;;6.63;;
76863;SDS011;65834;52.364;9.754;2023-07-02T08:38:19;17.77;;;6.05;;
76863;SDS011;65834;52.364;9.754;2023-07-02T08:40:49;16.98;;;5.68;;
76863;SDS011;65834;52.364;9.754;2023-07-02T08:43:19;18.45;;;6.50;;
76863;SDS011;65834;52.364;9.754;2023-07-02T08:45:48;16.50;;;5.95;;
76863;SDS011;65834;52.364;9.754;2023-07-02T08:48:18;20.65;;;6.90;;
76863;SDS011;65834;52.364;9.754;2023-07-02T08:50:50;17.67;;;5.93;;
76863;SDS011;65834;52.364;9.754;2023-07-02T08:53:23;19.67;;;6.50;;
76863;SDS011;65834;52.364;9.754;2023-07-02T08:55:56;18.73;;;6.53;;
76863;SDS011;65834;52.364;9.754;2023-07-02T08:58:26;17.15;;;6.07;;
76863;SDS011;65834;52.364;9.754;2023-07-02T09:01:05;16.83;;;5.95;;
76863;SDS011;65834;52.364;9.754;2023-07-02T09:03:36;17.27;;;6.18;;
76863;SDS011;65834;52.364;9.754;2023-07-02T09:06:07;17.10;;;5.72;;
76863;SDS011;65834;52.364;9.754;2023-07-02T09:08:40;16.83;;;6.67;;
76863;SDS011;65834;52.364;9.754;2023-07-02T09:11:10;16.13;;;6.07;;
76863;SDS011;65834;52.364;9.754;2023-07-02T09:13:42;17.35;;;6.63;;
76863;SDS011;65834;52.364;9.754;2023-07-02T09:16:26;16.83;;;6.55;;
76863;SDS011;65834;52.364;9.754;2023-07-02T09:18:58;17.92;;;6.25;;
76863;SDS011;65834;52.364;9.754;2023-07-02T09:21:41;20.65;;;5.85;;
76863;SDS011;65834;52.364;9.754;2023-07-02T09:24:15;17.30;;;6.30;;
76863;SDS011;65834;52.364;9.754;2023-07-02T09:26:46;22.23;;;6.75;;
76863;SDS011;65834;52.364;9.754;2023-07-02T09:29:17;17.77;;;6.20;;
76863;SDS011;65834;52.364;9.754;2023-07-02T09:31:48;21.77;;;6.68;;
76863;SDS011;65834;52.364;9.754;2023-07-02T09:34:35;19.00;;;7.32;;
76863;SDS011;65834;52.364;9.754;2023-07-02T09:37:07;15.85;;;6.15;;
76863;SDS011;65834;52.364;9.754;2023-07-02T09:39:39;18.25;;;6.32;;
76863;SDS011;65834;52.364;9.754;2023-07-02T09:42:09;18.13;;;6.43;;
76863;SDS011;65834;52.364;9.754;2023-07-02T09:44:39;18.05;;;6.15;;
76863;SDS011;65834;52.364;9.754;2023-07-02T09:47:10;18.95;;;6.68;;
76863;SDS011;65834;52.364;9.754;2023-07-02T09:49:42;16.63;;;6.20;;
76863;SDS011;65834;52.364;9.754;2023-07-02T09:52:17;16.85;;;6.05;;
76863;SDS011;65834;52.364;9.754;2023-07-02T09:54:49;17.80;;;6.53;;
76863;SDS011;65834;52.364;9.754;2023-07-02T09:57:19;18.38;;;6.57;;
76863;SDS011;65834;52.364;9.754;2023-07-02T09:59:49;17.17;;;6.53;;
76863;SDS011;65834;52.364;9.754;2023-07-02T10:02:18;18.35;;;6.68;;
76863;SDS011;65834;52.364;9.754;2023-07-02T10:04:48;17.58;;;6.60;;
76863;SDS011;65834;52.364;9.754;2023-07-02T10:07:28;18.38;;;6.40;;
76863;SDS011;65834;52.364;9.754;2023-07-02T10:10:02;16.38;;;7.00;;
76863;SDS011;65834;52.364;9.754;2023-07-02T10:12:33;17.42;;;6.22;;
76863;SDS011;65834;52.364;9.754;2023-07-02T10:15:02;16.35;;;6.25;;
76863;SDS011;65834;52.364;9.754;2023-07-02T10:17:38;18.20;;;6.10;;
76863;SDS011;65834;52.364;9.754;2023-07-02T10:20:08;16.48;;;6.35;;
76863;SDS011;65834;52.364;9.754;2023-07-02T10:22:42;16.33;;;6.28;;
76863;SDS011;65834;52.364;9.754;2023-07-02T10:25:23;16.33;;;6.07;;
76863;SDS011;65834;52.364;9.754;2023-07-02T10:27:53;17.73;;;5.80;;
76863;SDS011;65834;52.364;9.754;2023-07-02T10:30:33;15.98;;;6.03;;
76863;SDS011;65834;52.364;9.754;2023-07-02T10:33:07;17.67;;;6.18;;
76863;SDS011;65834;52.364;9.754;2023-07-02T10:35:38;14.77;;;5.75;;
76863;SDS011;65834;52.364;9.754;2023-07-02T10:38:13;15.57;;;5.65;;
76863;SDS011;65834;52.364;9.754;2023-07-02T10:40:46;17.45;;;5.95;;
76863;SDS011;65834;52.364;9.754;2023-07-02T10:43:23;18.27;;;5.57;;
76863;SDS011;65834;52.364;9.754;2023-07-02T10:45:56;17.17;;;5.82;;
76863;SDS011;65834;52.364;9.754;2023-07-02T10:48:27;24.33;;;6.53;;
76863;SDS011;65834;52.364;9.754;2023-07-02T10:50:56;15.32;;;4.93;;
76863;SDS011;65834;52.364;9.754;2023-07-02T10:53:26;15.48;;;5.50;;
76863;SDS011;65834;52.364;9.754;2023-07-02T10:56:00;15.88;;;5.47;;
76863;SDS011;65834;52.364;9.754;2023-07-02T10:58:30;16.77;;;6.13;;
76863;SDS011;65834;52.364;9.754;2023-07-02T11:00:59;15.52;;;5.80;;
76863;SDS011;65834;52.364;9.754;2023-07-02T11:03:29;16.58;;;5.75;;
76863;SDS011;65834;52.364;9.754;2023-07-02T11:05:59;16.05;;;5.82;;
76863;SDS011;65834;52.364;9.754;2023-07-02T11:08:34;18.90;;;6.13;;
76863;SDS011;65834;52.364;9.754;2023-07-02T11:11:07;20.23;;;8.73;;
76863;SDS011;65834;52.364;9.754;2023-07-02T11:13:43;15.38;;;5.68;;
76863;SDS011;65834;52.364;9.754;2023-07-02T11:16:18;17.50;;;6.18;;
76863;SDS011;65834;52.364;9.754;2023-07-02T11:18:51;18.05;;;6.82;;
76863;SDS011;65834;52.364;9.754;2023-07-02T11:21:22;17.00;;;6.53;;
76863;SDS011;65834;52.364;9.754;2023-07-02T11:24:00;15.15;;;5.57;;
76863;SDS011;65834;52.364;9.754;2023-07-02T11:26:39;16.02;;;5.70;;
76863;SDS011;65834;52.364;9.754;2023-07-02T11:29:10;16.88;;;6.00;;
76863;SDS011;65834;52.364;9.754;2023-07-02T11:31:40;16.15;;;5.45;;
76863;SDS011;65834;52.364;9.754;2023-07-02T11:34:13;16.95;;;5.63;;
76863;SDS011;65834;52.364;9.754;2023-07-02T11:36:44;16.02;;;5.32;;
76863;SDS011;65834;52.364;9.754;2023-07-02T11:39:14;15.68;;;6.05;;
76863;SDS011;65834;52.364;9.754;2023-07-02T11:41:47;21.00;;;6.28;;
76863;SDS011;65834;52.364;9.754;2023-07-02T11:44:17;16.85;;;5.53;;
76863;SDS011;65834;52.364;9.754;2023-07-02T11:46:47;15.15;;;5.35;;
76863;SDS011;65834;52.364;9.754;2023-07-02T11:49:17;14.55;;;6.05;;
76863;SDS011;65834;52.364;9.754;2023-07-02T11:51:46;14.98;;;5.20;;
76863;SDS011;65834;52.364;9.754;2023-07-02T11:54:17;14.52;;;5.78;;
76863;SDS011;65834;52.364;9.754;2023-07-02T11:56:49;16.40;;;5.15;;
76863;SDS011;65834;52.364;9.754;2023-07-02T11:59:19;17.10;;;5.72;;
76863;SDS011;65834;52.364;9.754;2023-07-02T12:01:48;15.30;;;5.63;;
76863;SDS011;65834;52.364;9.754;2023-07-02T12:04:18;16.23;;;5.22;;
76863;SDS011;65834;52.364;9.754;2023-07-02T12:06:47;16.10;;;5.22;;
76863;SDS011;65834;52.364;9.754;2023-07-02T12:09:18;15.23;;;5.00;;
76863;SDS011;65834;52.364;9.754;2023-07-02T12:11:50;19.92;;;5.50;;
76863;SDS011;65834;52.364;9.754;2023-07-02T12:14:19;14.05;;;5.10;;
76863;SDS011;65834;52.364;9.754;2023-07-02T12:16:49;14.25;;;4.78;;
76863;SDS011;65834;52.364;9.754;2023-07-02T12:19:19;16.38;;;5.65;;
76863;SDS011;65834;52.364;9.754;2023-07-02T12:21:51;14.63;;;5.82;;
76863;SDS011;65834;52.364;9.754;2023-07-02T12:24:20;15.95;;;5.32;;
76863;SDS011;65834;52.364;9.754;2023-07-02T12:26:53;16.05;;;5.15;;
76863;SDS011;65834;52.364;9.754;2023-07-02T12:29:22;15.88;;;5.35;;
76863;SDS011;65834;52.364;9.754;2023-07-02T12:31:52;14.45;;;5.28;;
76863;SDS011;65834;52.364;9.754;2023-07-02T12:34:21;12.77;;;4.68;;
76863;SDS011;65834;52.364;9.754;2023-07-02T12:36:51;15.85;;;5.40;;
76863;SDS011;65834;52.364;9.754;2023-07-02T12:39:21;14.93;;;5.10;;
76863;SDS011;65834;52.364;9.754;2023-07-02T12:41:53;14.45;;;5.07;;
76863;SDS011;65834;52.364;9.754;2023-07-02T12:44:22;18.05;;;5.88;;
76863;SDS011;65834;52.364;9.754;2023-07-02T12:46:52;15.35;;;5.30;;
76863;SDS011;65834;52.364;9.754;2023-07-02T12:49:22;13.90;;;4.72;;
76863;SDS011;65834;52.364;9.754;2023-07-02T12:51:54;15.60;;;5.05;;
76863;SDS011;65834;52.364;9.754;2023-07-02T12:54:24;16.08;;;5.30;;
76863;SDS011;65834;52.364;9.754;2023-07-02T12:56:56;15.95;;;5.15;;
76863;SDS011;65834;52.364;9.754;2023-07-02T12:59:25;14.35;;;4.47;;
76863;SDS011;65834;52.364;9.754;2023-07-02T13:01:55;15.00;;;5.22;;
76863;SDS011;65834;52.364;9.754;2023-07-02T13:04:25;15.82;;;5.30;;
76863;SDS011;65834;52.364;9.754;2023-07-02T13:06:55;15.98;;;5.20;;
76863;SDS011;65834;52.364;9.754;2023-07-02T13:09:24;14.80;;;5.20;;
76863;SDS011;65834;52.364;9.754;2023-07-02T13:11:56;18.20;;;5.57;;
76863;SDS011;65834;52.364;9.754;2023-07-02T13:14:26;15.10;;;5.05;;
76863;SDS011;65834;52.364;9.754;2023-07-02T13:16:56;16.02;;;4.95;;
76863;SDS011;65834;52.364;9.754;2023-07-02T13:19:25;18.70;;;7.53;;
76863;SDS011;65834;52.364;9.754;2023-07-02T13:21:55;14.95;;;5.25;;
76863;SDS011;65834;52.364;9.754;2023-07-02T13:24:25;15.27;;;5.22;;
76863;SDS011;65834;52.364;9.754;2023-07-02T13:26:59;15.32;;;5.43;;
76863;SDS011;65834;52.364;9.754;2023-07-02T13:29:30;13.68;;;4.72;;
76863;SDS011;65834;52.364;9.754;2023-07-02T13:32:00;16.17;;;5.25;;
76863;SDS011;65834;52.364;9.754;2023-07-02T13:34:29;15.75;;;4.88;;
76863;SDS011;65834;52.364;9.754;2023-07-02T13:36:59;14.50;;;4.78;;
76863;SDS011;65834;52.364;9.754;2023-07-02T13:39:29;16.08;;;5.13;;
76863;SDS011;65834;52.364;9.754;2023-07-02T13:42:02;13.90;;;4.57;;
76863;SDS011;65834;52.364;9.754;2023-07-02T13:44:32;14.35;;;4.70;;
76863;SDS011;65834;52.364;9.754;2023-07-02T13:47:01;14.40;;;5.28;;
76863;SDS011;65834;52.364;9.754;2023-07-02T13:49:32;12.85;;;4.53;;
76863;SDS011;65834;52.364;9.754;2023-07-02T13:52:02;14.00;;;5.00;;
76863;SDS011;65834;52.364;9.754;2023-07-02T13:54:31;13.85;;;4.78;;
76863;SDS011;65834;52.364;9.754;2023-07-02T13:57:06;14.13;;;4.90;;
76863;SDS011;65834;52.364;9.754;2023-07-02T13:59:38;15.00;;;4.45;;
76863;SDS011;65834;52.364;9.754;2023-07-02T14:02:07;13.77;;;4.53;;
76863;SDS011;65834;52.364;9.754;2023-07-02T14:04:37;16.55;;;5.00;;
76863;SDS011;65834;52.364;9.754;2023-07-02T14:07:07;15.02;;;4.80;;
76863;SDS011;65834;52.364;9.754;2023-07-02T14:09:37;14.23;;;4.60;;
76863;SDS011;65834;52.364;9.754;2023-07-02T14:12:07;14.20;;;5.20;;
76863;SDS011;65834;52.364;9.754;2023-07-02T14:14:41;13.23;;;4.35;;
76863;SDS011;65834;52.364;9.754;2023-07-02T14:17:12;14.88;;;4.10;;
76863;SDS011;65834;52.364;9.754;2023-07-02T14:19:43;13.68;;;4.90;;
76863;SDS011;65834;52.364;9.754;2023-07-02T14:22:13;13.73;;;4.47;;
76863;SDS011;65834;52.364;9.754;2023-07-02T14:24:42;14.55;;;4.55;;
76863;SDS011;65834;52.364;9.754;2023-07-02T14:27:12;13.95;;;4.78;;
76863;SDS011;65834;52.364;9.754;2023-07-02T14:29:44;15.35;;;4.57;;
76863;SDS011;65834;52.364;9.754;2023-07-02T14:32:15;13.20;;;5.18;;
76863;SDS011;65834;52.364;9.754;2023-07-02T14:34:45;13.07;;;4.53;;
76863;SDS011;65834;52.364;9.754;2023-07-02T14:37:15;15.75;;;5.38;;
76863;SDS011;65834;52.364;9.754;2023-07-02T14:39:44;12.50;;;4.30;;
76863;SDS011;65834;52.364;9.754;2023-07-02T14:42:32;13.57;;;4.57;;
76863;SDS011;65834;52.364;9.754;2023-07-02T14:45:05;13.35;;;4.47;;
76863;SDS011;65834;52.364;9.754;2023-07-02T14:47:35;14.82;;;5.07;;
76863;SDS011;65834;52.364;9.754;2023-07-02T14:50:05;13.48;;;4.30;;
76863;SDS011;65834;52.364;9.754;2023-07-02T14:52:35;13.93;;;5.13;;
76863;SDS011;65834;52.364;9.754;2023-07-02T14:55:05;14.70;;;4.70;;
76863;SDS011;65834;52.364;9.754;2023-07-02T14:57:35;11.40;;;3.80;;
76863;SDS011;65834;52.364;9.754;2023-07-02T15:00:08;12.98;;;4.03;;
76863;SDS011;65834;52.364;9.754;2023-07-02T15:02:39;12.35;;;4.53;;
76863;SDS011;65834;52.364;9.754;2023-07-02T15:05:09;14.27;;;4.20;;
76863;SDS011;65834;52.364;9.754;2023-07-02T15:07:39;12.50;;;4.03;;
76863;SDS011;65834;52.364;9.754;2023-07-02T15:10:08;13.93;;;4.80;;